OKBO2: North Canadian River at Britton Rd at OKC, OK

Data processed at Sat Dec 09 2017 23:24


All information presented herein is the property of the government of the United States of America and may be revised or deleted at any time without prior notice.
Dissemination of this information without the expressed written consent of the Public Affairs Office, Tulsa District U.S. Army Corps of Engineers is strictly prohibited.
These data are gathered electronically and, as presented, have not undergone any form of quality control. These data are not guaranteed to be valid or correct.
Go to home page.
Go to station list.

Upstream stations:

Downstream station:
Previous Day
Next Day
Current Day
    
SHEF ID:       OKBO2     North Canadian River at Britton
STATION TYPE:  

                STAGE  RIV-FLOW  WTR-TEMP   DIS-OXY   CONDUCT  BAT-LOAD
                   ft       cfs         F      mg/l   umho/cm      volt
              Ccp-Rev   Ccp-Rev   Ccp-Rev   Ccp-Rev   Ccp-Rev   Ccp-Rev
(US/Central)
12/07 00:00      6.81        63     46.27     10.78      1085     12.77
12/07 01:00      6.78        58     46.08     10.67      1082     12.77
12/07 02:00      6.77        57     45.73     10.51      1080     12.77
12/07 03:00      6.77        57     45.37     10.43      1076     12.71
12/07 04:00      6.77        57     45.01     10.27      1071     12.71
12/07 05:00      6.74        52     44.31     10.21      1067     12.71
12/07 06:00      6.76        55     43.59     10.19      1062     12.71
12/07 07:00      6.81        63     42.42     10.04      1066     12.65
12/07 08:00      6.78        58     41.63     10.35      1069     12.60
12/07 09:00      6.80        61     41.13     10.77      1070     13.53
12/07 10:00      6.82        64     40.89     11.25      1068     14.53
12/07 11:00      6.85        69     41.16     11.58      1068     14.71
12/07 12:00      6.83        66     41.85     12.54      1068     14.24
12/07 13:00      6.87        72     42.58     12.77      1071     14.18
12/07 14:00      6.89        75     43.38     12.45      1074     14.12
12/07 15:00      6.90        77     43.88     12.69      1080     13.83
12/07 16:00      6.96        88     43.88     12.61      1085     13.65
12/07 17:00      6.98        91     43.21     12.55      1092     13.53
12/07 18:00      6.99        93     42.67     12.20      1091     13.30
12/07 19:00      7.00        95     41.94     11.95      1092     13.00
12/07 20:00      7.00        95     41.32     12.46      1094     12.89
12/07 21:00      6.99        93     40.87     12.05      1094     12.89
12/07 22:00      6.98        91     40.71     11.90      1095     12.83
12/07 23:00      6.97        89     40.60     11.67      1094     12.77